sensor_id;sensor_type;location;lat;lon;timestamp;pressure;altitude;pressure_sealevel;temperature;humidity
43119;BME280;28729;49.838;8.650;2023-06-24T00:01:53;100582.06;;;17.69;87.05
43119;BME280;28729;49.838;8.650;2023-06-24T00:06:03;100594.06;;;17.69;87.78
43119;BME280;28729;49.838;8.650;2023-06-24T00:10:19;100594.06;;;17.69;87.98
43119;BME280;28729;49.838;8.650;2023-06-24T00:14:21;100587.38;;;17.65;88.75
43119;BME280;28729;49.838;8.650;2023-06-24T00:18:25;100593.22;;;17.64;88.85
43119;BME280;28729;49.838;8.650;2023-06-24T00:22:30;100590.97;;;17.61;88.99
43119;BME280;28729;49.838;8.650;2023-06-24T00:26:32;100600.72;;;17.48;88.35
43119;BME280;28729;49.838;8.650;2023-06-24T00:30:34;100597.38;;;17.36;89.75
43119;BME280;28729;49.838;8.650;2023-06-24T00:34:37;100601.25;;;17.29;91.53
43119;BME280;28729;49.838;8.650;2023-06-24T00:38:39;100587.06;;;17.26;91.70
43119;BME280;28729;49.838;8.650;2023-06-24T00:42:45;100591.22;;;17.23;92.00
43119;BME280;28729;49.838;8.650;2023-06-24T00:46:47;100596.22;;;17.21;92.69
43119;BME280;28729;49.838;8.650;2023-06-24T00:50:51;100591.22;;;17.18;92.59
43119;BME280;28729;49.838;8.650;2023-06-24T00:54:53;100589.81;;;17.16;92.70
43119;BME280;28729;49.838;8.650;2023-06-24T00:58:56;100600.41;;;17.14;93.30
43119;BME280;28729;49.838;8.650;2023-06-24T01:02:59;100601.50;;;17.13;93.47
43119;BME280;28729;49.838;8.650;2023-06-24T01:07:01;100602.31;;;17.13;93.06
43119;BME280;28729;49.838;8.650;2023-06-24T01:11:03;100593.97;;;17.13;93.13
43119;BME280;28729;49.838;8.650;2023-06-24T01:15:09;100600.41;;;17.14;93.65
43119;BME280;28729;49.838;8.650;2023-06-24T01:28:39;100606.22;;;17.07;95.31
43119;BME280;28729;49.838;8.650;2023-06-24T01:33:22;100604.84;;;17.04;96.09
43119;BME280;28729;49.838;8.650;2023-06-24T01:37:55;100607.88;;;17.03;96.49
43119;BME280;28729;49.838;8.650;2023-06-24T01:42:31;100612.31;;;16.99;96.62
43119;BME280;28729;49.838;8.650;2023-06-24T01:46:48;100606.19;;;16.97;96.87
43119;BME280;28729;49.838;8.650;2023-06-24T01:50:58;100613.97;;;16.95;97.39
43119;BME280;28729;49.838;8.650;2023-06-24T01:55:04;100615.63;;;16.91;97.44
43119;BME280;28729;49.838;8.650;2023-06-24T01:59:09;100617.84;;;16.89;98.07
43119;BME280;28729;49.838;8.650;2023-06-24T02:03:12;100621.16;;;16.85;99.13
43119;BME280;28729;49.838;8.650;2023-06-24T02:07:16;100623.94;;;16.85;99.71
43119;BME280;28729;49.838;8.650;2023-06-24T02:11:21;100616.69;;;16.79;99.91
43119;BME280;28729;49.838;8.650;2023-06-24T02:15:25;100617.50;;;16.75;100.00
43119;BME280;28729;49.838;8.650;2023-06-24T02:19:30;100611.66;;;16.76;100.00
43119;BME280;28729;49.838;8.650;2023-06-24T02:23:33;100605.50;;;16.74;100.00
43119;BME280;28729;49.838;8.650;2023-06-24T02:27:38;100602.16;;;16.72;100.00
43119;BME280;28729;49.838;8.650;2023-06-24T02:31:41;100604.66;;;16.69;100.00
43119;BME280;28729;49.838;8.650;2023-06-24T02:35:43;100612.16;;;16.68;100.00
43119;BME280;28729;49.838;8.650;2023-06-24T02:39:47;100608.81;;;16.66;100.00
43119;BME280;28729;49.838;8.650;2023-06-24T02:43:49;100605.72;;;16.62;100.00
43119;BME280;28729;49.838;8.650;2023-06-24T02:47:52;100609.03;;;16.59;100.00
43119;BME280;28729;49.838;8.650;2023-06-24T02:51:54;100607.66;;;16.57;100.00
43119;BME280;28729;49.838;8.650;2023-06-24T02:55:56;100613.78;;;16.54;100.00
43119;BME280;28729;49.838;8.650;2023-06-24T02:59:59;100605.09;;;16.50;100.00
43119;BME280;28729;49.838;8.650;2023-06-24T03:04:13;100613.72;;;16.49;100.00
43119;BME280;28729;49.838;8.650;2023-06-24T03:08:15;100607.34;;;16.48;100.00
43119;BME280;28729;49.838;8.650;2023-06-24T03:17:30;100606.22;;;16.49;100.00
43119;BME280;28729;49.838;8.650;2023-06-24T03:26:40;100607.63;;;16.52;100.00
43119;BME280;28729;49.838;8.650;2023-06-24T03:31:14;100616.25;;;16.55;100.00
43119;BME280;28729;49.838;8.650;2023-06-24T03:35:17;100625.44;;;16.56;100.00
43119;BME280;28729;49.838;8.650;2023-06-24T03:39:30;100619.34;;;16.59;100.00
43119;BME280;28729;49.838;8.650;2023-06-24T03:43:31;100622.16;;;16.64;100.00
43119;BME280;28729;49.838;8.650;2023-06-24T03:47:34;100619.94;;;16.66;100.00
43119;BME280;28729;49.838;8.650;2023-06-24T03:51:35;100622.44;;;16.68;100.00
43119;BME280;28729;49.838;8.650;2023-06-24T03:55:37;100623.84;;;16.70;100.00
43119;BME280;28729;49.838;8.650;2023-06-24T03:59:39;100626.94;;;16.74;100.00
43119;BME280;28729;49.838;8.650;2023-06-24T04:03:41;100626.16;;;16.78;100.00
43119;BME280;28729;49.838;8.650;2023-06-24T04:07:43;100625.63;;;16.81;100.00
43119;BME280;28729;49.838;8.650;2023-06-24T04:11:51;100631.22;;;16.87;100.00
43119;BME280;28729;49.838;8.650;2023-06-24T04:15:53;100635.13;;;16.91;100.00
43119;BME280;28729;49.838;8.650;2023-06-24T04:19:55;100634.84;;;16.92;100.00
43119;BME280;28729;49.838;8.650;2023-06-24T04:23:58;100632.38;;;16.96;100.00
43119;BME280;28729;49.838;8.650;2023-06-24T04:28:00;100649.34;;;16.99;100.00
43119;BME280;28729;49.838;8.650;2023-06-24T04:32:03;100647.97;;;17.02;100.00
43119;BME280;28729;49.838;8.650;2023-06-24T04:36:06;100639.06;;;17.05;100.00
43119;BME280;28729;49.838;8.650;2023-06-24T04:40:09;100644.09;;;17.08;100.00
43119;BME280;28729;49.838;8.650;2023-06-24T04:44:11;100648.84;;;17.13;100.00
43119;BME280;28729;49.838;8.650;2023-06-24T04:48:13;100649.13;;;17.16;100.00
43119;BME280;28729;49.838;8.650;2023-06-24T04:52:15;100660.03;;;17.23;100.00
43119;BME280;28729;49.838;8.650;2023-06-24T04:56:16;100664.75;;;17.27;100.00
43119;BME280;28729;49.838;8.650;2023-06-24T05:00:18;100662.00;;;17.33;100.00
43119;BME280;28729;49.838;8.650;2023-06-24T05:04:20;100659.50;;;17.36;100.00
43119;BME280;28729;49.838;8.650;2023-06-24T05:08:22;100661.47;;;17.41;100.00
43119;BME280;28729;49.838;8.650;2023-06-24T05:12:23;100657.59;;;17.47;100.00
43119;BME280;28729;49.838;8.650;2023-06-24T05:16:29;100660.38;;;17.52;100.00
43119;BME280;28729;49.838;8.650;2023-06-24T05:20:31;100671.53;;;17.62;100.00
43119;BME280;28729;49.838;8.650;2023-06-24T05:24:32;100679.63;;;17.69;100.00
43119;BME280;28729;49.838;8.650;2023-06-24T05:28:34;100683.56;;;17.78;100.00
43119;BME280;28729;49.838;8.650;2023-06-24T05:37:32;100688.06;;;17.94;100.00
43119;BME280;28729;49.838;8.650;2023-06-24T05:47:05;100679.44;;;18.06;100.00
43119;BME280;28729;49.838;8.650;2023-06-24T05:51:16;100681.63;;;18.14;100.00
43119;BME280;28729;49.838;8.650;2023-06-24T05:55:18;100687.78;;;18.21;100.00
43119;BME280;28729;49.838;8.650;2023-06-24T05:59:23;100685.00;;;18.32;100.00
43119;BME280;28729;49.838;8.650;2023-06-24T06:03:25;100690.84;;;18.45;100.00
43119;BME280;28729;49.838;8.650;2023-06-24T06:07:27;100695.00;;;18.58;100.00
43119;BME280;28729;49.838;8.650;2023-06-24T06:11:28;100698.88;;;18.73;100.00
43119;BME280;28729;49.838;8.650;2023-06-24T06:15:30;100694.41;;;18.87;100.00
43119;BME280;28729;49.838;8.650;2023-06-24T06:19:32;100696.91;;;18.99;100.00
43119;BME280;28729;49.838;8.650;2023-06-24T06:23:34;100696.56;;;19.10;98.60
43119;BME280;28729;49.838;8.650;2023-06-24T06:27:36;100694.81;;;19.30;96.35
43119;BME280;28729;49.838;8.650;2023-06-24T06:31:38;100688.00;;;19.51;94.45
43119;BME280;28729;49.838;8.650;2023-06-24T06:35:41;100692.13;;;19.69;92.61
43119;BME280;28729;49.838;8.650;2023-06-24T06:39:43;100693.09;;;19.89;91.63
43119;BME280;28729;49.838;8.650;2023-06-24T06:43:44;100700.50;;;20.09;88.94
43119;BME280;28729;49.838;8.650;2023-06-24T06:47:47;100695.81;;;20.33;88.44
43119;BME280;28729;49.838;8.650;2023-06-24T06:51:54;100692.81;;;20.59;87.46
43119;BME280;28729;49.838;8.650;2023-06-24T06:55:56;100692.91;;;20.78;85.82
43119;BME280;28729;49.838;8.650;2023-06-24T07:00:01;100680.53;;;21.03;83.54
43119;BME280;28729;49.838;8.650;2023-06-24T07:04:04;100687.00;;;21.27;80.80
43119;BME280;28729;49.838;8.650;2023-06-24T07:08:07;100685.28;;;21.50;79.42
43119;BME280;28729;49.838;8.650;2023-06-24T07:12:09;100684.16;;;21.70;77.57
43119;BME280;28729;49.838;8.650;2023-06-24T07:16:10;100681.06;;;21.91;75.10
43119;BME280;28729;49.838;8.650;2023-06-24T07:20:12;100677.31;;;22.14;72.79
43119;BME280;28729;49.838;8.650;2023-06-24T07:24:14;100682.81;;;22.38;71.29
43119;BME280;28729;49.838;8.650;2023-06-24T07:28:16;100675.88;;;22.63;68.53
43119;BME280;28729;49.838;8.650;2023-06-24T07:32:18;100679.38;;;22.88;67.21
43119;BME280;28729;49.838;8.650;2023-06-24T07:36:20;100677.13;;;23.04;65.67
43119;BME280;28729;49.838;8.650;2023-06-24T07:40:23;100669.94;;;23.11;64.22
43119;BME280;28729;49.838;8.650;2023-06-24T07:44:25;100678.78;;;23.32;64.79
43119;BME280;28729;49.838;8.650;2023-06-24T07:48:27;100675.81;;;23.51;63.28
43119;BME280;28729;49.838;8.650;2023-06-24T07:52:29;100671.94;;;23.75;63.28
43119;BME280;28729;49.838;8.650;2023-06-24T07:56:31;100671.81;;;24.02;61.98
43119;BME280;28729;49.838;8.650;2023-06-24T08:00:33;100678.81;;;24.27;59.35
43119;BME280;28729;49.838;8.650;2023-06-24T08:04:38;100681.78;;;24.53;58.08
43119;BME280;28729;49.838;8.650;2023-06-24T08:08:40;100682.44;;;24.82;57.31
43119;BME280;28729;49.838;8.650;2023-06-24T08:12:43;100679.38;;;25.00;57.06
43119;BME280;28729;49.838;8.650;2023-06-24T08:16:44;100673.09;;;25.12;55.60
43119;BME280;28729;49.838;8.650;2023-06-24T08:20:47;100675.66;;;25.14;52.54
43119;BME280;28729;49.838;8.650;2023-06-24T08:24:49;100668.38;;;25.30;54.54
43119;BME280;28729;49.838;8.650;2023-06-24T08:28:53;100670.91;;;25.49;53.23
43119;BME280;28729;49.838;8.650;2023-06-24T08:32:55;100674.78;;;25.79;52.51
43119;BME280;28729;49.838;8.650;2023-06-24T08:36:57;100666.50;;;26.00;51.56
43119;BME280;28729;49.838;8.650;2023-06-24T08:40:59;100667.47;;;26.22;51.17
43119;BME280;28729;49.838;8.650;2023-06-24T08:45:01;100664.63;;;26.30;49.56
43119;BME280;28729;49.838;8.650;2023-06-24T08:53:16;100670.94;;;26.53;47.93
43119;BME280;28729;49.838;8.650;2023-06-24T08:57:19;100677.97;;;26.77;45.95
43119;BME280;28729;49.838;8.650;2023-06-24T09:01:21;100662.66;;;26.87;45.36
43119;BME280;28729;49.838;8.650;2023-06-24T09:05:25;100666.59;;;26.94;45.91
43119;BME280;28729;49.838;8.650;2023-06-24T09:09:27;100665.88;;;27.06;45.61
43119;BME280;28729;49.838;8.650;2023-06-24T09:13:36;100660.63;;;27.34;43.94
43119;BME280;28729;49.838;8.650;2023-06-24T09:17:45;100655.03;;;27.67;43.18
43119;BME280;28729;49.838;8.650;2023-06-24T09:21:51;100648.50;;;27.97;43.76
43119;BME280;28729;49.838;8.650;2023-06-24T09:25:56;100632.34;;;27.97;43.01
43119;BME280;28729;49.838;8.650;2023-06-24T09:30:00;100639.00;;;28.13;42.34
43119;BME280;28729;49.838;8.650;2023-06-24T09:34:01;100621.81;;;28.31;41.63
43119;BME280;28729;49.838;8.650;2023-06-24T09:38:04;100623.00;;;28.30;40.42
43119;BME280;28729;49.838;8.650;2023-06-24T09:42:06;100616.69;;;28.45;40.96
43119;BME280;28729;49.838;8.650;2023-06-24T09:46:09;100615.38;;;28.43;39.76
43119;BME280;28729;49.838;8.650;2023-06-24T09:50:12;100606.56;;;28.69;39.50
43119;BME280;28729;49.838;8.650;2023-06-24T09:54:15;100603.75;;;29.05;38.50
43119;BME280;28729;49.838;8.650;2023-06-24T09:58:18;100593.66;;;29.45;37.24
43119;BME280;28729;49.838;8.650;2023-06-24T10:02:20;100585.09;;;29.57;36.52
43119;BME280;28729;49.838;8.650;2023-06-24T10:06:25;100585.59;;;29.87;36.05
43119;BME280;28729;49.838;8.650;2023-06-24T10:10:27;100577.50;;;30.02;35.71
43119;BME280;28729;49.838;8.650;2023-06-24T10:14:28;100572.22;;;29.88;35.11
43119;BME280;28729;49.838;8.650;2023-06-24T10:18:36;100570.25;;;29.76;35.99
43119;BME280;28729;49.838;8.650;2023-06-24T10:22:39;100563.00;;;30.07;35.45
43119;BME280;28729;49.838;8.650;2023-06-24T10:26:48;100561.09;;;30.11;35.43
43119;BME280;28729;49.838;8.650;2023-06-24T10:30:56;100555.41;;;30.11;34.96
43119;BME280;28729;49.838;8.650;2023-06-24T10:34:58;100551.22;;;29.92;35.44
43119;BME280;28729;49.838;8.650;2023-06-24T10:39:01;100556.28;;;29.43;35.68
43119;BME280;28729;49.838;8.650;2023-06-24T10:43:24;100538.34;;;29.14;36.41
43119;BME280;28729;49.838;8.650;2023-06-24T10:47:27;100540.44;;;29.29;36.19
43119;BME280;28729;49.838;8.650;2023-06-24T10:51:29;100532.38;;;30.00;34.91
43119;BME280;28729;49.838;8.650;2023-06-24T10:55:31;100542.28;;;30.34;34.41
43119;BME280;28729;49.838;8.650;2023-06-24T10:59:35;100528.94;;;29.79;34.34
43119;BME280;28729;49.838;8.650;2023-06-24T11:03:39;100525.47;;;29.17;35.53
43119;BME280;28729;49.838;8.650;2023-06-24T11:07:42;100525.75;;;28.75;35.96
43119;BME280;28729;49.838;8.650;2023-06-24T11:11:46;100518.44;;;28.74;36.72
43119;BME280;28729;49.838;8.650;2023-06-24T11:15:48;100509.41;;;29.49;35.56
43119;BME280;28729;49.838;8.650;2023-06-24T11:19:52;100511.06;;;30.22;34.20
43119;BME280;28729;49.838;8.650;2023-06-24T11:23:54;100500.78;;;30.81;33.47
43119;BME280;28729;49.838;8.650;2023-06-24T11:27:56;100486.94;;;30.99;32.48
43119;BME280;28729;49.838;8.650;2023-06-24T11:32:01;100491.19;;;31.24;32.48
43119;BME280;28729;49.838;8.650;2023-06-24T11:36:09;100488.66;;;31.58;32.06
43119;BME280;28729;49.838;8.650;2023-06-24T11:40:17;100485.31;;;32.41;30.77
43119;BME280;28729;49.838;8.650;2023-06-24T11:44:23;100479.53;;;32.87;29.53
43119;BME280;28729;49.838;8.650;2023-06-24T11:48:28;100486.38;;;33.05;29.12
43119;BME280;28729;49.838;8.650;2023-06-24T11:52:39;100477.00;;;33.39;28.57
43119;BME280;28729;49.838;8.650;2023-06-24T11:56:44;100476.13;;;33.04;28.08
43119;BME280;28729;49.838;8.650;2023-06-24T12:00:46;100475.94;;;31.94;29.62
43119;BME280;28729;49.838;8.650;2023-06-24T12:04:50;100468.38;;;31.83;29.80
43119;BME280;28729;49.838;8.650;2023-06-24T12:08:52;100467.66;;;31.27;30.81
43119;BME280;28729;49.838;8.650;2023-06-24T12:12:55;100471.25;;;30.54;31.77
43119;BME280;28729;49.838;8.650;2023-06-24T12:16:57;100472.16;;;29.94;32.75
43119;BME280;28729;49.838;8.650;2023-06-24T12:21:00;100463.81;;;30.02;33.32
43119;BME280;28729;49.838;8.650;2023-06-24T12:25:02;100458.50;;;30.16;32.58
43119;BME280;28729;49.838;8.650;2023-06-24T12:29:06;100445.66;;;29.90;33.13
43119;BME280;28729;49.838;8.650;2023-06-24T12:33:09;100446.66;;;31.74;30.74
43119;BME280;28729;49.838;8.650;2023-06-24T12:37:10;100433.91;;;33.51;29.33
43119;BME280;28729;49.838;8.650;2023-06-24T12:41:12;100439.22;;;34.89;26.04
43119;BME280;28729;49.838;8.650;2023-06-24T12:45:14;100429.78;;;35.98;26.39
43119;BME280;28729;49.838;8.650;2023-06-24T12:49:16;100428.00;;;37.22;24.74
43119;BME280;28729;49.838;8.650;2023-06-24T12:53:21;100413.16;;;38.53;22.20
43119;BME280;28729;49.838;8.650;2023-06-24T12:57:23;100408.16;;;39.60;21.78
43119;BME280;28729;49.838;8.650;2023-06-24T13:01:25;100400.34;;;40.11;20.31
43119;BME280;28729;49.838;8.650;2023-06-24T13:05:27;100401.75;;;38.42;21.89
43119;BME280;28729;49.838;8.650;2023-06-24T13:09:29;100408.47;;;36.63;23.07
43119;BME280;28729;49.838;8.650;2023-06-24T13:13:31;100413.97;;;35.13;24.32
43119;BME280;28729;49.838;8.650;2023-06-24T13:17:32;100412.94;;;33.73;25.36
43119;BME280;28729;49.838;8.650;2023-06-24T13:21:35;100402.72;;;32.75;26.17
43119;BME280;28729;49.838;8.650;2023-06-24T13:25:37;100396.34;;;32.05;27.29
43119;BME280;28729;49.838;8.650;2023-06-24T13:29:39;100397.16;;;31.40;28.02
43119;BME280;28729;49.838;8.650;2023-06-24T13:33:41;100391.97;;;30.87;28.33
43119;BME280;28729;49.838;8.650;2023-06-24T13:37:43;100389.09;;;30.68;28.62
43119;BME280;28729;49.838;8.650;2023-06-24T13:41:45;100377.59;;;32.31;27.33
43119;BME280;28729;49.838;8.650;2023-06-24T13:45:46;100377.41;;;34.78;25.15
43119;BME280;28729;49.838;8.650;2023-06-24T13:49:50;100374.28;;;37.12;23.89
43119;BME280;28729;49.838;8.650;2023-06-24T13:53:53;100363.91;;;37.32;23.30
43119;BME280;28729;49.838;8.650;2023-06-24T13:57:58;100365.03;;;38.08;22.83
43119;BME280;28729;49.838;8.650;2023-06-24T14:02:00;100356.94;;;39.10;21.53
43119;BME280;28729;49.838;8.650;2023-06-24T14:06:03;100359.22;;;39.53;20.64
43119;BME280;28729;49.838;8.650;2023-06-24T14:10:06;100351.94;;;40.86;19.63
43119;BME280;28729;49.838;8.650;2023-06-24T14:14:08;100354.44;;;42.42;17.76
43119;BME280;28729;49.838;8.650;2023-06-24T14:18:10;100337.84;;;42.71;17.49
43119;BME280;28729;49.838;8.650;2023-06-24T14:22:12;100346.63;;;43.52;16.70
43119;BME280;28729;49.838;8.650;2023-06-24T14:26:14;100331.50;;;43.06;16.93
43119;BME280;28729;49.838;8.650;2023-06-24T14:30:16;100335.72;;;40.72;18.85
43119;BME280;28729;49.838;8.650;2023-06-24T14:34:18;100332.38;;;41.82;17.85
43119;BME280;28729;49.838;8.650;2023-06-24T14:38:21;100330.41;;;42.58;17.60
43119;BME280;28729;49.838;8.650;2023-06-24T14:42:24;100324.47;;;43.19;17.10
43119;BME280;28729;49.838;8.650;2023-06-24T14:46:27;100317.50;;;43.68;16.61
43119;BME280;28729;49.838;8.650;2023-06-24T14:50:29;100302.13;;;44.41;15.95
43119;BME280;28729;49.838;8.650;2023-06-24T14:54:31;100300.25;;;44.69;15.29
43119;BME280;28729;49.838;8.650;2023-06-24T14:58:32;100308.75;;;44.63;15.69
43119;BME280;28729;49.838;8.650;2023-06-24T15:02:34;100304.44;;;42.08;16.63
43119;BME280;28729;49.838;8.650;2023-06-24T15:06:37;100301.56;;;40.47;17.75
43119;BME280;28729;49.838;8.650;2023-06-24T15:10:38;100291.63;;;40.04;18.04
43119;BME280;28729;49.838;8.650;2023-06-24T15:14:40;100291.50;;;39.88;18.78
43119;BME280;28729;49.838;8.650;2023-06-24T15:18:46;100287.84;;;40.31;18.56
43119;BME280;28729;49.838;8.650;2023-06-24T15:22:49;100281.88;;;39.71;18.87
43119;BME280;28729;49.838;8.650;2023-06-24T15:26:51;100282.91;;;38.00;20.19
43119;BME280;28729;49.838;8.650;2023-06-24T15:30:53;100292.13;;;36.12;22.39
43119;BME280;28729;49.838;8.650;2023-06-24T15:34:54;100272.31;;;34.82;23.53
43119;BME280;28729;49.838;8.650;2023-06-24T15:38:56;100282.31;;;33.77;24.27
43119;BME280;28729;49.838;8.650;2023-06-24T15:42:59;100273.44;;;33.04;25.58
43119;BME280;28729;49.838;8.650;2023-06-24T15:47:01;100268.13;;;32.69;25.25
43119;BME280;28729;49.838;8.650;2023-06-24T15:51:02;100259.31;;;32.21;25.90
43119;BME280;28729;49.838;8.650;2023-06-24T15:55:05;100251.41;;;32.07;25.98
43119;BME280;28729;49.838;8.650;2023-06-24T15:59:07;100255.19;;;32.18;26.58
43119;BME280;28729;49.838;8.650;2023-06-24T16:03:09;100248.53;;;31.81;26.94
43119;BME280;28729;49.838;8.650;2023-06-24T16:07:11;100251.16;;;31.43;26.98
43119;BME280;28729;49.838;8.650;2023-06-24T16:11:13;100247.66;;;31.07;27.60
43119;BME280;28729;49.838;8.650;2023-06-24T16:15:15;100251.13;;;30.78;27.97
43119;BME280;28729;49.838;8.650;2023-06-24T16:19:17;100254.53;;;30.45;28.27
43119;BME280;28729;49.838;8.650;2023-06-24T16:23:18;100244.41;;;30.28;28.95
43119;BME280;28729;49.838;8.650;2023-06-24T16:27:20;100241.34;;;30.36;28.81
43119;BME280;28729;49.838;8.650;2023-06-24T16:31:22;100242.13;;;30.17;29.12
43119;BME280;28729;49.838;8.650;2023-06-24T16:35:24;100248.44;;;29.91;29.42
43119;BME280;28729;49.838;8.650;2023-06-24T16:39:26;100247.34;;;29.80;29.71
43119;BME280;28729;49.838;8.650;2023-06-24T16:43:28;100244.97;;;29.50;29.49
43119;BME280;28729;49.838;8.650;2023-06-24T16:47:29;100240.69;;;29.41;30.31
43119;BME280;28729;49.838;8.650;2023-06-24T16:51:34;100241.88;;;29.40;30.14
43119;BME280;28729;49.838;8.650;2023-06-24T16:55:37;100247.56;;;29.40;30.08
43119;BME280;28729;49.838;8.650;2023-06-24T16:59:39;100241.97;;;29.27;30.19
43119;BME280;28729;49.838;8.650;2023-06-24T17:03:41;100241.13;;;29.11;30.86
43119;BME280;28729;49.838;8.650;2023-06-24T17:07:43;100238.22;;;29.07;30.52
43119;BME280;28729;49.838;8.650;2023-06-24T17:11:45;100235.16;;;29.00;30.82
43119;BME280;28729;49.838;8.650;2023-06-24T17:15:47;100231.03;;;28.98;31.06
43119;BME280;28729;49.838;8.650;2023-06-24T17:19:49;100228.47;;;28.93;31.12
43119;BME280;28729;49.838;8.650;2023-06-24T17:23:50;100229.44;;;28.84;31.21
43119;BME280;28729;49.838;8.650;2023-06-24T17:27:52;100230.09;;;28.78;31.47
43119;BME280;28729;49.838;8.650;2023-06-24T17:31:54;100233.47;;;28.68;31.47
43119;BME280;28729;49.838;8.650;2023-06-24T17:35:56;100232.75;;;28.58;31.70
43119;BME280;28729;49.838;8.650;2023-06-24T17:39:58;100229.00;;;28.54;32.03
43119;BME280;28729;49.838;8.650;2023-06-24T17:44:00;100232.09;;;28.49;32.35
43119;BME280;28729;49.838;8.650;2023-06-24T17:48:02;100233.66;;;28.47;32.60
43119;BME280;28729;49.838;8.650;2023-06-24T17:52:04;100227.44;;;28.41;32.49
43119;BME280;28729;49.838;8.650;2023-06-24T17:56:06;100224.72;;;28.32;32.51
43119;BME280;28729;49.838;8.650;2023-06-24T18:00:08;100224.75;;;28.20;33.30
43119;BME280;28729;49.838;8.650;2023-06-24T18:04:10;100229.03;;;28.14;33.55
43119;BME280;28729;49.838;8.650;2023-06-24T18:08:12;100224.66;;;28.04;33.42
43119;BME280;28729;49.838;8.650;2023-06-24T18:12:14;100217.00;;;27.92;33.81
43119;BME280;28729;49.838;8.650;2023-06-24T18:16:16;100215.03;;;27.81;34.47
43119;BME280;28729;49.838;8.650;2023-06-24T18:20:18;100210.66;;;27.71;34.45
43119;BME280;28729;49.838;8.650;2023-06-24T18:24:20;100207.03;;;27.58;34.66
43119;BME280;28729;49.838;8.650;2023-06-24T18:28:22;100209.72;;;27.42;35.58
43119;BME280;28729;49.838;8.650;2023-06-24T18:32:23;100201.13;;;27.26;35.97
43119;BME280;28729;49.838;8.650;2023-06-24T18:36:25;100206.25;;;27.12;36.93
43119;BME280;28729;49.838;8.650;2023-06-24T18:40:27;100210.47;;;26.94;37.56
43119;BME280;28729;49.838;8.650;2023-06-24T18:44:29;100211.84;;;26.75;37.99
43119;BME280;28729;49.838;8.650;2023-06-24T18:48:31;100202.59;;;26.54;38.58
43119;BME280;28729;49.838;8.650;2023-06-24T18:52:33;100207.28;;;26.29;38.85
43119;BME280;28729;49.838;8.650;2023-06-24T18:56:35;100208.81;;;26.05;39.85
43119;BME280;28729;49.838;8.650;2023-06-24T19:00:37;100211.16;;;25.82;40.56
43119;BME280;28729;49.838;8.650;2023-06-24T19:04:39;100198.81;;;25.57;40.42
43119;BME280;28729;49.838;8.650;2023-06-24T19:08:41;100205.41;;;25.40;41.59
43119;BME280;28729;49.838;8.650;2023-06-24T19:12:43;100202.84;;;25.18;42.37
43119;BME280;28729;49.838;8.650;2023-06-24T19:16:45;100205.56;;;24.97;43.31
43119;BME280;28729;49.838;8.650;2023-06-24T19:20:46;100203.47;;;24.76;43.98
43119;BME280;28729;49.838;8.650;2023-06-24T19:24:49;100203.34;;;24.55;43.93
43119;BME280;28729;49.838;8.650;2023-06-24T19:28:51;100200.88;;;24.37;45.47
43119;BME280;28729;49.838;8.650;2023-06-24T19:32:54;100203.69;;;24.19;45.83
43119;BME280;28729;49.838;8.650;2023-06-24T19:36:57;100199.56;;;23.99;46.69
43119;BME280;28729;49.838;8.650;2023-06-24T19:40:59;100204.84;;;23.83;46.93
43119;BME280;28729;49.838;8.650;2023-06-24T19:45:02;100207.25;;;23.67;48.06
43119;BME280;28729;49.838;8.650;2023-06-24T19:49:04;100206.59;;;23.53;48.38
43119;BME280;28729;49.838;8.650;2023-06-24T19:53:07;100205.06;;;23.38;48.86
43119;BME280;28729;49.838;8.650;2023-06-24T19:57:09;100209.63;;;23.26;49.52
43119;BME280;28729;49.838;8.650;2023-06-24T20:01:11;100210.22;;;23.14;49.67
43119;BME280;28729;49.838;8.650;2023-06-24T20:05:13;100211.69;;;23.03;49.66
43119;BME280;28729;49.838;8.650;2023-06-24T20:09:15;100202.69;;;22.92;50.46
43119;BME280;28729;49.838;8.650;2023-06-24T20:13:17;100209.41;;;22.82;50.54
43119;BME280;28729;49.838;8.650;2023-06-24T20:17:19;100202.72;;;22.69;51.51
43119;BME280;28729;49.838;8.650;2023-06-24T20:21:21;100202.69;;;22.61;51.16
43119;BME280;28729;49.838;8.650;2023-06-24T20:25:23;100205.63;;;22.56;51.78
43119;BME280;28729;49.838;8.650;2023-06-24T20:29:25;100200.75;;;22.47;52.58
43119;BME280;28729;49.838;8.650;2023-06-24T20:33:26;100200.06;;;22.42;51.73
43119;BME280;28729;49.838;8.650;2023-06-24T20:37:29;100206.97;;;22.36;52.43
43119;BME280;28729;49.838;8.650;2023-06-24T20:41:34;100197.63;;;22.26;53.30
43119;BME280;28729;49.838;8.650;2023-06-24T20:45:35;100204.34;;;22.17;53.93
43119;BME280;28729;49.838;8.650;2023-06-24T20:49:37;100196.47;;;22.05;54.00
43119;BME280;28729;49.838;8.650;2023-06-24T20:53:40;100197.53;;;21.95;54.51
43119;BME280;28729;49.838;8.650;2023-06-24T20:57:42;100196.31;;;21.88;55.11
43119;BME280;28729;49.838;8.650;2023-06-24T21:01:44;100199.84;;;21.79;55.57
43119;BME280;28729;49.838;8.650;2023-06-24T21:05:46;100197.78;;;21.71;56.49
43119;BME280;28729;49.838;8.650;2023-06-24T21:09:48;100198.22;;;21.65;56.63
43119;BME280;28729;49.838;8.650;2023-06-24T21:13:50;100198.13;;;21.56;56.91
43119;BME280;28729;49.838;8.650;2023-06-24T21:17:52;100200.22;;;21.50;56.89
43119;BME280;28729;49.838;8.650;2023-06-24T21:21:53;100200.09;;;21.42;58.04
43119;BME280;28729;49.838;8.650;2023-06-24T21:25:55;100198.53;;;21.35;58.05
43119;BME280;28729;49.838;8.650;2023-06-24T21:29:57;100201.75;;;21.29;58.30
43119;BME280;28729;49.838;8.650;2023-06-24T21:33:59;100195.44;;;21.23;58.99
43119;BME280;28729;49.838;8.650;2023-06-24T21:38:01;100198.34;;;21.18;59.08
43119;BME280;28729;49.838;8.650;2023-06-24T21:42:03;100198.13;;;21.14;59.69